sensor_id;sensor_type;location;lat;lon;timestamp;P1;durP1;ratioP1;P2;durP2;ratioP2
28834;SDS011;15969;51.536;11.884;2023-03-11T00:02:08;3.13;;;2.83;;
28834;SDS011;15969;51.536;11.884;2023-03-11T00:04:34;3.50;;;3.20;;
28834;SDS011;15969;51.536;11.884;2023-03-11T00:07:00;4.13;;;3.73;;
28834;SDS011;15969;51.536;11.884;2023-03-11T00:09:26;4.27;;;3.87;;
28834;SDS011;15969;51.536;11.884;2023-03-11T00:11:51;4.00;;;3.60;;
28834;SDS011;15969;51.536;11.884;2023-03-11T00:14:17;3.93;;;3.60;;
28834;SDS011;15969;51.536;11.884;2023-03-11T00:16:43;4.03;;;3.63;;
28834;SDS011;15969;51.536;11.884;2023-03-11T00:19:09;4.57;;;4.17;;
28834;SDS011;15969;51.536;11.884;2023-03-11T00:21:35;4.43;;;4.03;;
28834;SDS011;15969;51.536;11.884;2023-03-11T00:24:00;4.93;;;4.40;;
28834;SDS011;15969;51.536;11.884;2023-03-11T00:26:27;5.47;;;4.93;;
28834;SDS011;15969;51.536;11.884;2023-03-11T00:28:53;5.93;;;5.33;;
28834;SDS011;15969;51.536;11.884;2023-03-11T00:31:19;6.00;;;5.40;;
28834;SDS011;15969;51.536;11.884;2023-03-11T00:33:45;7.17;;;6.47;;
28834;SDS011;15969;51.536;11.884;2023-03-11T00:36:16;6.70;;;6.07;;
28834;SDS011;15969;51.536;11.884;2023-03-11T00:38:48;7.27;;;6.57;;
28834;SDS011;15969;51.536;11.884;2023-03-11T00:41:14;7.70;;;6.90;;
28834;SDS011;15969;51.536;11.884;2023-03-11T00:43:40;8.60;;;7.77;;
28834;SDS011;15969;51.536;11.884;2023-03-11T00:46:06;11.17;;;7.60;;
28834;SDS011;15969;51.536;11.884;2023-03-11T00:48:33;8.53;;;6.77;;
28834;SDS011;15969;51.536;11.884;2023-03-11T00:50:58;7.97;;;7.17;;
28834;SDS011;15969;51.536;11.884;2023-03-11T00:53:24;7.30;;;6.60;;
28834;SDS011;15969;51.536;11.884;2023-03-11T00:55:50;8.10;;;7.30;;
28834;SDS011;15969;51.536;11.884;2023-03-11T00:58:16;7.47;;;6.70;;
28834;SDS011;15969;51.536;11.884;2023-03-11T01:00:42;7.13;;;6.43;;
28834;SDS011;15969;51.536;11.884;2023-03-11T01:03:08;8.27;;;7.33;;
28834;SDS011;15969;51.536;11.884;2023-03-11T01:05:34;7.50;;;6.40;;
28834;SDS011;15969;51.536;11.884;2023-03-11T01:07:59;6.47;;;5.87;;
28834;SDS011;15969;51.536;11.884;2023-03-11T01:10:26;7.53;;;6.63;;
28834;SDS011;15969;51.536;11.884;2023-03-11T01:12:53;6.97;;;6.27;;
28834;SDS011;15969;51.536;11.884;2023-03-11T01:15:27;7.43;;;6.57;;
28834;SDS011;15969;51.536;11.884;2023-03-11T01:17:56;8.57;;;7.17;;
28834;SDS011;15969;51.536;11.884;2023-03-11T01:20:22;8.50;;;7.07;;
28834;SDS011;15969;51.536;11.884;2023-03-11T01:22:48;8.73;;;7.83;;
28834;SDS011;15969;51.536;11.884;2023-03-11T01:25:14;10.07;;;8.47;;
28834;SDS011;15969;51.536;11.884;2023-03-11T01:27:42;14.83;;;9.90;;
28834;SDS011;15969;51.536;11.884;2023-03-11T01:30:09;11.17;;;9.93;;
28834;SDS011;15969;51.536;11.884;2023-03-11T01:32:40;14.07;;;11.77;;
28834;SDS011;15969;51.536;11.884;2023-03-11T01:35:06;13.60;;;11.10;;
28834;SDS011;15969;51.536;11.884;2023-03-11T01:37:33;13.67;;;11.67;;
28834;SDS011;15969;51.536;11.884;2023-03-11T01:39:59;17.23;;;13.13;;
28834;SDS011;15969;51.536;11.884;2023-03-11T01:42:25;16.67;;;13.20;;
28834;SDS011;15969;51.536;11.884;2023-03-11T01:44:50;16.30;;;13.40;;
28834;SDS011;15969;51.536;11.884;2023-03-11T01:47:33;15.23;;;13.13;;
28834;SDS011;15969;51.536;11.884;2023-03-11T01:50:04;16.63;;;13.63;;
28834;SDS011;15969;51.536;11.884;2023-03-11T01:52:35;18.77;;;14.00;;
28834;SDS011;15969;51.536;11.884;2023-03-11T01:55:02;15.97;;;12.70;;
28834;SDS011;15969;51.536;11.884;2023-03-11T01:57:29;16.03;;;12.97;;
28834;SDS011;15969;51.536;11.884;2023-03-11T01:59:55;16.03;;;12.40;;
28834;SDS011;15969;51.536;11.884;2023-03-11T02:02:27;16.10;;;11.97;;
28834;SDS011;15969;51.536;11.884;2023-03-11T02:04:59;14.07;;;10.60;;
28834;SDS011;15969;51.536;11.884;2023-03-11T02:07:26;15.20;;;11.80;;
28834;SDS011;15969;51.536;11.884;2023-03-11T02:09:53;15.90;;;12.20;;
28834;SDS011;15969;51.536;11.884;2023-03-11T02:12:18;14.93;;;11.80;;
28834;SDS011;15969;51.536;11.884;2023-03-11T02:14:45;16.03;;;12.43;;
28834;SDS011;15969;51.536;11.884;2023-03-11T02:17:14;17.03;;;12.80;;
28834;SDS011;15969;51.536;11.884;2023-03-11T02:22:56;15.13;;;11.63;;
28834;SDS011;15969;51.536;11.884;2023-03-11T02:25:34;16.20;;;12.37;;
28834;SDS011;15969;51.536;11.884;2023-03-11T02:28:24;18.47;;;13.83;;
28834;SDS011;15969;51.536;11.884;2023-03-11T02:30:52;17.60;;;13.20;;
28834;SDS011;15969;51.536;11.884;2023-03-11T02:33:20;18.03;;;13.73;;
28834;SDS011;15969;51.536;11.884;2023-03-11T02:35:51;18.33;;;14.70;;
28834;SDS011;15969;51.536;11.884;2023-03-11T02:38:16;17.70;;;14.20;;
28834;SDS011;15969;51.536;11.884;2023-03-11T02:43:14;17.33;;;13.00;;
28834;SDS011;15969;51.536;11.884;2023-03-11T02:45:43;20.60;;;13.60;;
28834;SDS011;15969;51.536;11.884;2023-03-11T02:48:10;20.17;;;14.57;;
28834;SDS011;15969;51.536;11.884;2023-03-11T02:50:36;20.50;;;14.57;;
28834;SDS011;15969;51.536;11.884;2023-03-11T02:53:04;18.97;;;14.17;;
28834;SDS011;15969;51.536;11.884;2023-03-11T02:55:30;18.23;;;13.60;;
28834;SDS011;15969;51.536;11.884;2023-03-11T02:57:56;18.57;;;13.50;;
28834;SDS011;15969;51.536;11.884;2023-03-11T03:00:22;17.00;;;12.70;;
28834;SDS011;15969;51.536;11.884;2023-03-11T03:02:48;16.10;;;12.03;;
28834;SDS011;15969;51.536;11.884;2023-03-11T03:05:16;16.80;;;13.07;;
28834;SDS011;15969;51.536;11.884;2023-03-11T03:07:44;20.87;;;13.13;;
28834;SDS011;15969;51.536;11.884;2023-03-11T03:10:12;16.33;;;12.77;;
28834;SDS011;15969;51.536;11.884;2023-03-11T03:12:39;17.03;;;12.97;;
28834;SDS011;15969;51.536;11.884;2023-03-11T03:15:05;20.00;;;13.63;;
28834;SDS011;15969;51.536;11.884;2023-03-11T03:17:32;19.97;;;14.30;;
28834;SDS011;15969;51.536;11.884;2023-03-11T03:19:57;18.80;;;14.50;;
28834;SDS011;15969;51.536;11.884;2023-03-11T03:22:23;20.37;;;14.03;;
28834;SDS011;15969;51.536;11.884;2023-03-11T03:24:53;19.07;;;13.73;;
28834;SDS011;15969;51.536;11.884;2023-03-11T03:27:19;17.23;;;12.83;;
28834;SDS011;15969;51.536;11.884;2023-03-11T03:29:44;18.50;;;13.37;;
28834;SDS011;15969;51.536;11.884;2023-03-11T03:32:10;23.23;;;13.27;;
28834;SDS011;15969;51.536;11.884;2023-03-11T03:34:36;18.37;;;13.63;;
28834;SDS011;15969;51.536;11.884;2023-03-11T03:37:02;16.93;;;12.50;;
28834;SDS011;15969;51.536;11.884;2023-03-11T03:39:27;18.87;;;13.27;;
28834;SDS011;15969;51.536;11.884;2023-03-11T03:41:53;19.93;;;13.93;;
28834;SDS011;15969;51.536;11.884;2023-03-11T03:44:19;24.90;;;14.77;;
28834;SDS011;15969;51.536;11.884;2023-03-11T03:46:44;19.63;;;14.13;;
28834;SDS011;15969;51.536;11.884;2023-03-11T03:49:10;19.53;;;13.27;;
28834;SDS011;15969;51.536;11.884;2023-03-11T03:51:36;16.23;;;12.20;;
28834;SDS011;15969;51.536;11.884;2023-03-11T03:54:01;16.90;;;11.80;;
28834;SDS011;15969;51.536;11.884;2023-03-11T03:56:27;15.60;;;11.50;;
28834;SDS011;15969;51.536;11.884;2023-03-11T03:58:53;15.07;;;11.00;;
28834;SDS011;15969;51.536;11.884;2023-03-11T04:01:18;14.23;;;10.77;;
28834;SDS011;15969;51.536;11.884;2023-03-11T04:03:45;14.27;;;10.67;;
28834;SDS011;15969;51.536;11.884;2023-03-11T04:06:18;15.03;;;10.20;;
28834;SDS011;15969;51.536;11.884;2023-03-11T04:08:46;12.90;;;9.17;;
28834;SDS011;15969;51.536;11.884;2023-03-11T04:11:12;11.93;;;10.00;;
28834;SDS011;15969;51.536;11.884;2023-03-11T04:13:38;10.47;;;8.53;;
28834;SDS011;15969;51.536;11.884;2023-03-11T04:16:04;13.33;;;9.63;;
28834;SDS011;15969;51.536;11.884;2023-03-11T04:18:31;11.63;;;9.50;;
28834;SDS011;15969;51.536;11.884;2023-03-11T04:20:58;12.83;;;9.33;;
28834;SDS011;15969;51.536;11.884;2023-03-11T04:23:23;12.90;;;9.83;;
28834;SDS011;15969;51.536;11.884;2023-03-11T04:25:49;12.83;;;9.97;;
28834;SDS011;15969;51.536;11.884;2023-03-11T04:28:15;14.97;;;11.93;;
28834;SDS011;15969;51.536;11.884;2023-03-11T04:30:41;16.90;;;12.97;;
28834;SDS011;15969;51.536;11.884;2023-03-11T04:33:06;16.67;;;11.90;;
28834;SDS011;15969;51.536;11.884;2023-03-11T04:35:32;17.37;;;12.73;;
28834;SDS011;15969;51.536;11.884;2023-03-11T04:37:58;15.83;;;11.80;;
28834;SDS011;15969;51.536;11.884;2023-03-11T04:40:25;15.07;;;11.40;;
28834;SDS011;15969;51.536;11.884;2023-03-11T04:42:51;14.70;;;10.90;;
28834;SDS011;15969;51.536;11.884;2023-03-11T04:45:17;13.10;;;10.37;;
28834;SDS011;15969;51.536;11.884;2023-03-11T04:47:46;15.00;;;11.33;;
28834;SDS011;15969;51.536;11.884;2023-03-11T04:50:13;15.37;;;11.70;;
28834;SDS011;15969;51.536;11.884;2023-03-11T04:52:39;14.67;;;12.00;;
28834;SDS011;15969;51.536;11.884;2023-03-11T04:55:05;15.20;;;11.97;;
28834;SDS011;15969;51.536;11.884;2023-03-11T04:57:31;17.57;;;12.13;;
28834;SDS011;15969;51.536;11.884;2023-03-11T04:59:57;16.03;;;12.33;;
28834;SDS011;15969;51.536;11.884;2023-03-11T05:02:23;19.00;;;11.97;;
28834;SDS011;15969;51.536;11.884;2023-03-11T05:04:48;15.07;;;11.63;;
28834;SDS011;15969;51.536;11.884;2023-03-11T05:07:14;13.77;;;10.53;;
28834;SDS011;15969;51.536;11.884;2023-03-11T05:09:40;12.83;;;10.40;;
28834;SDS011;15969;51.536;11.884;2023-03-11T05:12:06;12.43;;;10.40;;
28834;SDS011;15969;51.536;11.884;2023-03-11T05:14:31;12.43;;;10.33;;
28834;SDS011;15969;51.536;11.884;2023-03-11T05:16:57;11.10;;;9.03;;
28834;SDS011;15969;51.536;11.884;2023-03-11T05:19:23;11.80;;;9.13;;
28834;SDS011;15969;51.536;11.884;2023-03-11T05:22:01;12.83;;;9.10;;
28834;SDS011;15969;51.536;11.884;2023-03-11T05:24:27;10.30;;;8.27;;
28834;SDS011;15969;51.536;11.884;2023-03-11T05:26:53;10.87;;;7.60;;
28834;SDS011;15969;51.536;11.884;2023-03-11T05:29:19;9.63;;;6.87;;
28834;SDS011;15969;51.536;11.884;2023-03-11T05:31:46;8.63;;;6.63;;
28834;SDS011;15969;51.536;11.884;2023-03-11T05:34:12;11.20;;;7.20;;
28834;SDS011;15969;51.536;11.884;2023-03-11T05:36:39;8.57;;;6.97;;
28834;SDS011;15969;51.536;11.884;2023-03-11T05:39:04;8.47;;;7.47;;
28834;SDS011;15969;51.536;11.884;2023-03-11T05:41:30;8.57;;;6.93;;
28834;SDS011;15969;51.536;11.884;2023-03-11T05:43:56;9.47;;;7.73;;
28834;SDS011;15969;51.536;11.884;2023-03-11T05:46:22;10.23;;;7.67;;
28834;SDS011;15969;51.536;11.884;2023-03-11T05:48:47;9.50;;;8.30;;
28834;SDS011;15969;51.536;11.884;2023-03-11T05:51:13;10.57;;;8.37;;
28834;SDS011;15969;51.536;11.884;2023-03-11T05:53:43;10.80;;;8.23;;
28834;SDS011;15969;51.536;11.884;2023-03-11T05:56:12;10.93;;;8.03;;
28834;SDS011;15969;51.536;11.884;2023-03-11T05:58:44;12.70;;;8.90;;
28834;SDS011;15969;51.536;11.884;2023-03-11T06:01:10;9.27;;;8.20;;
28834;SDS011;15969;51.536;11.884;2023-03-11T06:03:38;9.73;;;8.27;;
28834;SDS011;15969;51.536;11.884;2023-03-11T06:06:05;9.53;;;7.57;;
28834;SDS011;15969;51.536;11.884;2023-03-11T06:08:34;9.67;;;7.37;;
28834;SDS011;15969;51.536;11.884;2023-03-11T06:11:04;11.03;;;7.40;;
28834;SDS011;15969;51.536;11.884;2023-03-11T06:13:35;8.77;;;6.80;;
28834;SDS011;15969;51.536;11.884;2023-03-11T06:16:02;8.80;;;6.13;;
28834;SDS011;15969;51.536;11.884;2023-03-11T06:18:28;8.63;;;7.17;;
28834;SDS011;15969;51.536;11.884;2023-03-11T06:20:56;8.23;;;6.60;;
28834;SDS011;15969;51.536;11.884;2023-03-11T06:23:23;7.07;;;5.97;;
28834;SDS011;15969;51.536;11.884;2023-03-11T06:25:59;7.20;;;5.90;;
28834;SDS011;15969;51.536;11.884;2023-03-11T06:28:29;7.60;;;6.80;;
28834;SDS011;15969;51.536;11.884;2023-03-11T06:30:55;8.97;;;6.50;;
28834;SDS011;15969;51.536;11.884;2023-03-11T06:33:30;10.47;;;7.03;;
28834;SDS011;15969;51.536;11.884;2023-03-11T06:35:57;9.07;;;6.60;;
28834;SDS011;15969;51.536;11.884;2023-03-11T06:38:24;8.47;;;7.33;;
28834;SDS011;15969;51.536;11.884;2023-03-11T06:40:50;10.93;;;7.53;;
28834;SDS011;15969;51.536;11.884;2023-03-11T06:43:15;12.10;;;7.73;;
28834;SDS011;15969;51.536;11.884;2023-03-11T06:45:41;10.50;;;7.73;;
28834;SDS011;15969;51.536;11.884;2023-03-11T06:48:07;8.97;;;7.47;;
28834;SDS011;15969;51.536;11.884;2023-03-11T06:50:32;10.13;;;7.10;;
28834;SDS011;15969;51.536;11.884;2023-03-11T06:52:58;9.10;;;6.67;;
28834;SDS011;15969;51.536;11.884;2023-03-11T06:55:25;10.20;;;6.87;;
28834;SDS011;15969;51.536;11.884;2023-03-11T06:57:51;7.97;;;7.07;;
28834;SDS011;15969;51.536;11.884;2023-03-11T07:00:17;7.53;;;6.27;;
28834;SDS011;15969;51.536;11.884;2023-03-11T07:02:42;11.17;;;6.63;;
28834;SDS011;15969;51.536;11.884;2023-03-11T07:05:08;8.13;;;5.83;;
28834;SDS011;15969;51.536;11.884;2023-03-11T07:07:34;8.33;;;6.00;;
28834;SDS011;15969;51.536;11.884;2023-03-11T07:10:00;9.57;;;6.67;;
28834;SDS011;15969;51.536;11.884;2023-03-11T07:12:25;9.57;;;6.27;;
28834;SDS011;15969;51.536;11.884;2023-03-11T07:14:54;7.90;;;6.20;;
28834;SDS011;15969;51.536;11.884;2023-03-11T07:17:21;8.20;;;6.40;;
28834;SDS011;15969;51.536;11.884;2023-03-11T07:19:47;9.47;;;7.20;;
28834;SDS011;15969;51.536;11.884;2023-03-11T07:22:12;7.97;;;6.60;;
28834;SDS011;15969;51.536;11.884;2023-03-11T07:24:38;8.13;;;6.97;;
28834;SDS011;15969;51.536;11.884;2023-03-11T07:27:04;9.23;;;6.67;;
28834;SDS011;15969;51.536;11.884;2023-03-11T07:29:30;8.90;;;6.77;;
28834;SDS011;15969;51.536;11.884;2023-03-11T07:31:56;9.47;;;6.60;;
28834;SDS011;15969;51.536;11.884;2023-03-11T07:34:22;8.47;;;6.33;;
28834;SDS011;15969;51.536;11.884;2023-03-11T07:36:48;7.60;;;6.00;;
28834;SDS011;15969;51.536;11.884;2023-03-11T07:39:15;7.10;;;5.23;;
28834;SDS011;15969;51.536;11.884;2023-03-11T07:41:42;9.57;;;5.53;;
28834;SDS011;15969;51.536;11.884;2023-03-11T07:44:09;8.13;;;5.17;;
28834;SDS011;15969;51.536;11.884;2023-03-11T07:46:37;7.70;;;5.10;;
28834;SDS011;15969;51.536;11.884;2023-03-11T07:49:03;5.77;;;4.60;;
28834;SDS011;15969;51.536;11.884;2023-03-11T07:51:30;6.40;;;5.50;;
28834;SDS011;15969;51.536;11.884;2023-03-11T07:53:58;5.30;;;4.80;;
28834;SDS011;15969;51.536;11.884;2023-03-11T07:56:25;8.27;;;4.83;;
28834;SDS011;15969;51.536;11.884;2023-03-11T07:58:54;10.43;;;7.23;;
28834;SDS011;15969;51.536;11.884;2023-03-11T08:01:22;6.37;;;4.80;;
28834;SDS011;15969;51.536;11.884;2023-03-11T08:03:50;7.97;;;5.33;;
28834;SDS011;15969;51.536;11.884;2023-03-11T08:06:24;7.90;;;5.43;;
28834;SDS011;15969;51.536;11.884;2023-03-11T08:08:55;6.93;;;5.23;;
28834;SDS011;15969;51.536;11.884;2023-03-11T08:11:22;8.63;;;5.37;;
28834;SDS011;15969;51.536;11.884;2023-03-11T08:13:49;7.83;;;5.40;;
28834;SDS011;15969;51.536;11.884;2023-03-11T08:16:15;9.10;;;5.53;;
28834;SDS011;15969;51.536;11.884;2023-03-11T08:18:47;8.37;;;5.60;;
28834;SDS011;15969;51.536;11.884;2023-03-11T08:21:16;7.37;;;5.47;;
28834;SDS011;15969;51.536;11.884;2023-03-11T08:23:46;8.40;;;5.73;;
28834;SDS011;15969;51.536;11.884;2023-03-11T08:26:12;7.40;;;5.10;;
28834;SDS011;15969;51.536;11.884;2023-03-11T08:28:43;9.50;;;5.73;;
28834;SDS011;15969;51.536;11.884;2023-03-11T08:31:19;11.30;;;5.80;;
28834;SDS011;15969;51.536;11.884;2023-03-11T08:33:48;5.90;;;4.73;;
28834;SDS011;15969;51.536;11.884;2023-03-11T08:36:16;7.83;;;4.90;;
28834;SDS011;15969;51.536;11.884;2023-03-11T08:38:43;6.33;;;4.70;;
28834;SDS011;15969;51.536;11.884;2023-03-11T08:41:09;5.70;;;4.57;;
28834;SDS011;15969;51.536;11.884;2023-03-11T08:43:34;6.40;;;4.27;;
28834;SDS011;15969;51.536;11.884;2023-03-11T08:46:01;5.70;;;4.30;;
28834;SDS011;15969;51.536;11.884;2023-03-11T08:48:30;6.33;;;4.17;;
28834;SDS011;15969;51.536;11.884;2023-03-11T08:50:56;5.40;;;4.40;;
28834;SDS011;15969;51.536;11.884;2023-03-11T08:53:22;7.23;;;4.50;;
28834;SDS011;15969;51.536;11.884;2023-03-11T08:55:49;8.93;;;4.53;;
28834;SDS011;15969;51.536;11.884;2023-03-11T08:58:15;7.33;;;4.80;;
28834;SDS011;15969;51.536;11.884;2023-03-11T09:00:41;6.93;;;5.10;;
28834;SDS011;15969;51.536;11.884;2023-03-11T09:03:07;8.70;;;5.27;;
28834;SDS011;15969;51.536;11.884;2023-03-11T09:05:33;8.53;;;5.13;;
28834;SDS011;15969;51.536;11.884;2023-03-11T09:07:59;5.90;;;5.00;;
28834;SDS011;15969;51.536;11.884;2023-03-11T09:10:27;7.30;;;5.30;;
28834;SDS011;15969;51.536;11.884;2023-03-11T09:12:53;8.13;;;5.33;;
28834;SDS011;15969;51.536;11.884;2023-03-11T09:15:19;9.50;;;5.40;;
28834;SDS011;15969;51.536;11.884;2023-03-11T09:17:44;7.47;;;4.77;;
28834;SDS011;15969;51.536;11.884;2023-03-11T09:20:13;6.07;;;4.57;;
28834;SDS011;15969;51.536;11.884;2023-03-11T09:22:39;7.17;;;4.60;;
28834;SDS011;15969;51.536;11.884;2023-03-11T09:25:05;7.77;;;5.33;;
28834;SDS011;15969;51.536;11.884;2023-03-11T09:27:32;6.80;;;4.83;;
28834;SDS011;15969;51.536;11.884;2023-03-11T09:29:57;8.03;;;4.60;;
28834;SDS011;15969;51.536;11.884;2023-03-11T09:32:23;8.67;;;4.47;;
28834;SDS011;15969;51.536;11.884;2023-03-11T09:34:49;6.27;;;4.37;;
28834;SDS011;15969;51.536;11.884;2023-03-11T09:37:15;8.47;;;5.07;;
28834;SDS011;15969;51.536;11.884;2023-03-11T09:39:40;8.80;;;5.40;;
28834;SDS011;15969;51.536;11.884;2023-03-11T09:42:19;5.43;;;4.10;;
28834;SDS011;15969;51.536;11.884;2023-03-11T09:45:03;6.17;;;4.40;;
28834;SDS011;15969;51.536;11.884;2023-03-11T09:47:53;6.63;;;4.00;;
28834;SDS011;15969;51.536;11.884;2023-03-11T09:50:33;7.40;;;4.70;;
28834;SDS011;15969;51.536;11.884;2023-03-11T09:56:18;6.93;;;4.70;;
28834;SDS011;15969;51.536;11.884;2023-03-11T09:58:47;8.80;;;4.70;;
28834;SDS011;15969;51.536;11.884;2023-03-11T10:01:26;6.90;;;4.87;;
28834;SDS011;15969;51.536;11.884;2023-03-11T10:04:01;5.50;;;4.53;;
28834;SDS011;15969;51.536;11.884;2023-03-11T10:06:31;4.77;;;4.27;;
28834;SDS011;15969;51.536;11.884;2023-03-11T10:08:59;6.47;;;4.90;;
28834;SDS011;15969;51.536;11.884;2023-03-11T10:17:34;5.73;;;4.93;;
28834;SDS011;15969;51.536;11.884;2023-03-11T10:20:20;10.57;;;4.93;;
28834;SDS011;15969;51.536;11.884;2023-03-11T10:25:53;6.50;;;5.00;;
28834;SDS011;15969;51.536;11.884;2023-03-11T10:28:31;5.83;;;4.93;;
28834;SDS011;15969;51.536;11.884;2023-03-11T10:31:19;6.67;;;5.23;;
28834;SDS011;15969;51.536;11.884;2023-03-11T10:36:51;7.07;;;5.07;;
28834;SDS011;15969;51.536;11.884;2023-03-11T10:39:27;7.53;;;4.90;;
28834;SDS011;15969;51.536;11.884;2023-03-11T10:41:59;6.90;;;4.93;;
28834;SDS011;15969;51.536;11.884;2023-03-11T10:44:33;9.63;;;5.37;;
28834;SDS011;15969;51.536;11.884;2023-03-11T10:47:01;6.63;;;5.10;;
28834;SDS011;15969;51.536;11.884;2023-03-11T10:49:27;8.13;;;5.33;;
28834;SDS011;15969;51.536;11.884;2023-03-11T10:51:54;6.20;;;5.27;;
28834;SDS011;15969;51.536;11.884;2023-03-11T10:57:32;8.80;;;5.57;;
28834;SDS011;15969;51.536;11.884;2023-03-11T11:00:01;6.10;;;5.10;;
28834;SDS011;15969;51.536;11.884;2023-03-11T11:02:48;6.93;;;5.10;;
28834;SDS011;15969;51.536;11.884;2023-03-11T11:07:44;5.40;;;4.87;;
28834;SDS011;15969;51.536;11.884;2023-03-11T11:10:21;6.93;;;5.30;;
28834;SDS011;15969;51.536;11.884;2023-03-11T11:12:59;7.73;;;5.47;;
28834;SDS011;15969;51.536;11.884;2023-03-11T11:15:39;9.80;;;6.23;;
28834;SDS011;15969;51.536;11.884;2023-03-11T11:21:06;5.83;;;5.07;;
28834;SDS011;15969;51.536;11.884;2023-03-11T11:23:48;6.47;;;5.40;;
28834;SDS011;15969;51.536;11.884;2023-03-11T11:26:40;7.83;;;5.00;;
28834;SDS011;15969;51.536;11.884;2023-03-11T11:31:35;5.13;;;4.30;;
28834;SDS011;15969;51.536;11.884;2023-03-11T11:34:41;6.30;;;4.87;;
28834;SDS011;15969;51.536;11.884;2023-03-11T11:37:10;7.37;;;5.23;;
28834;SDS011;15969;51.536;11.884;2023-03-11T11:39:56;6.93;;;5.17;;
28834;SDS011;15969;51.536;11.884;2023-03-11T11:42:26;7.47;;;5.80;;
28834;SDS011;15969;51.536;11.884;2023-03-11T11:44:56;7.17;;;5.97;;
28834;SDS011;15969;51.536;11.884;2023-03-11T11:47:29;8.83;;;6.20;;
28834;SDS011;15969;51.536;11.884;2023-03-11T11:50:00;7.67;;;6.40;;
28834;SDS011;15969;51.536;11.884;2023-03-11T11:52:30;9.73;;;6.67;;
28834;SDS011;15969;51.536;11.884;2023-03-11T11:55:08;8.37;;;6.87;;
28834;SDS011;15969;51.536;11.884;2023-03-11T11:57:44;8.50;;;6.33;;
28834;SDS011;15969;51.536;11.884;2023-03-11T12:03:22;6.80;;;5.50;;
28834;SDS011;15969;51.536;11.884;2023-03-11T12:06:19;5.93;;;5.33;;
28834;SDS011;15969;51.536;11.884;2023-03-11T12:12:03;5.17;;;4.67;;
28834;SDS011;15969;51.536;11.884;2023-03-11T12:14:48;8.63;;;5.87;;
28834;SDS011;15969;51.536;11.884;2023-03-11T12:17:22;5.93;;;5.20;;
28834;SDS011;15969;51.536;11.884;2023-03-11T12:19:50;5.97;;;5.37;;
28834;SDS011;15969;51.536;11.884;2023-03-11T12:22:34;5.43;;;4.90;;
28834;SDS011;15969;51.536;11.884;2023-03-11T12:27:50;6.33;;;4.67;;
28834;SDS011;15969;51.536;11.884;2023-03-11T12:30:46;5.93;;;5.33;;
28834;SDS011;15969;51.536;11.884;2023-03-11T12:33:29;4.43;;;4.03;;
28834;SDS011;15969;51.536;11.884;2023-03-11T12:36:02;7.43;;;4.97;;
28834;SDS011;15969;51.536;11.884;2023-03-11T12:41:02;6.43;;;5.70;;
28834;SDS011;15969;51.536;11.884;2023-03-11T12:46:09;6.80;;;5.50;;
28834;SDS011;15969;51.536;11.884;2023-03-11T12:51:37;7.37;;;5.83;;
28834;SDS011;15969;51.536;11.884;2023-03-11T12:54:20;6.67;;;5.20;;
28834;SDS011;15969;51.536;11.884;2023-03-11T13:05:50;6.17;;;5.03;;
28834;SDS011;15969;51.536;11.884;2023-03-11T13:08:55;5.13;;;4.63;;
28834;SDS011;15969;51.536;11.884;2023-03-11T13:16:51;6.53;;;4.70;;
28834;SDS011;15969;51.536;11.884;2023-03-11T13:21:56;4.70;;;3.07;;
28834;SDS011;15969;51.536;11.884;2023-03-11T13:41:29;3.67;;;2.67;;
28834;SDS011;15969;51.536;11.884;2023-03-11T13:44:44;2.93;;;2.33;;
28834;SDS011;15969;51.536;11.884;2023-03-11T13:46:48;3.80;;;2.53;;
28834;SDS011;15969;51.536;11.884;2023-03-11T13:49:23;4.97;;;2.67;;
28834;SDS011;15969;51.536;11.884;2023-03-11T13:52:21;2.97;;;2.53;;
28834;SDS011;15969;51.536;11.884;2023-03-11T13:54:57;5.57;;;2.50;;
28834;SDS011;15969;51.536;11.884;2023-03-11T13:57:34;2.83;;;2.30;;
28834;SDS011;15969;51.536;11.884;2023-03-11T14:00:05;4.30;;;2.20;;
28834;SDS011;15969;51.536;11.884;2023-03-11T14:02:43;3.63;;;2.10;;
28834;SDS011;15969;51.536;11.884;2023-03-11T14:05:12;3.43;;;2.37;;
28834;SDS011;15969;51.536;11.884;2023-03-11T14:07:42;2.73;;;2.13;;
28834;SDS011;15969;51.536;11.884;2023-03-11T14:12:36;3.27;;;2.07;;
28834;SDS011;15969;51.536;11.884;2023-03-11T14:15:03;4.60;;;2.10;;
28834;SDS011;15969;51.536;11.884;2023-03-11T14:17:32;3.53;;;2.20;;
28834;SDS011;15969;51.536;11.884;2023-03-11T14:20:02;4.50;;;2.10;;
28834;SDS011;15969;51.536;11.884;2023-03-11T14:22:33;7.07;;;2.67;;
28834;SDS011;15969;51.536;11.884;2023-03-11T14:24:59;5.20;;;2.90;;
28834;SDS011;15969;51.536;11.884;2023-03-11T14:27:31;4.67;;;2.70;;
28834;SDS011;15969;51.536;11.884;2023-03-11T14:29:56;3.23;;;2.40;;
28834;SDS011;15969;51.536;11.884;2023-03-11T14:32:29;3.83;;;2.23;;
28834;SDS011;15969;51.536;11.884;2023-03-11T14:34:58;5.10;;;2.67;;
28834;SDS011;15969;51.536;11.884;2023-03-11T14:37:34;5.83;;;2.50;;
28834;SDS011;15969;51.536;11.884;2023-03-11T14:40:02;4.17;;;2.00;;
28834;SDS011;15969;51.536;11.884;2023-03-11T14:42:53;4.90;;;2.30;;
28834;SDS011;15969;51.536;11.884;2023-03-11T14:45:22;2.23;;;1.73;;
28834;SDS011;15969;51.536;11.884;2023-03-11T14:47:54;2.57;;;1.90;;
28834;SDS011;15969;51.536;11.884;2023-03-11T14:50:39;2.43;;;1.90;;
28834;SDS011;15969;51.536;11.884;2023-03-11T14:56:20;5.40;;;1.50;;
28834;SDS011;15969;51.536;11.884;2023-03-11T14:58:59;4.03;;;1.80;;
28834;SDS011;15969;51.536;11.884;2023-03-11T15:01:42;2.60;;;1.90;;
28834;SDS011;15969;51.536;11.884;2023-03-11T15:04:16;2.23;;;1.27;;
28834;SDS011;15969;51.536;11.884;2023-03-11T15:06:57;4.60;;;1.70;;
28834;SDS011;15969;51.536;11.884;2023-03-11T15:09:24;2.43;;;1.63;;
28834;SDS011;15969;51.536;11.884;2023-03-11T15:14:21;2.83;;;1.70;;
28834;SDS011;15969;51.536;11.884;2023-03-11T15:17:08;3.00;;;1.53;;
28834;SDS011;15969;51.536;11.884;2023-03-11T15:19:39;3.03;;;2.07;;
28834;SDS011;15969;51.536;11.884;2023-03-11T15:22:16;3.27;;;1.73;;
28834;SDS011;15969;51.536;11.884;2023-03-11T15:24:53;3.33;;;1.50;;
28834;SDS011;15969;51.536;11.884;2023-03-11T15:30:03;3.17;;;1.70;;
28834;SDS011;15969;51.536;11.884;2023-03-11T15:32:43;3.10;;;1.33;;
28834;SDS011;15969;51.536;11.884;2023-03-11T15:37:45;3.07;;;1.63;;
28834;SDS011;15969;51.536;11.884;2023-03-11T15:43:02;4.03;;;1.50;;
28834;SDS011;15969;51.536;11.884;2023-03-11T15:45:45;2.00;;;1.30;;
28834;SDS011;15969;51.536;11.884;2023-03-11T15:48:12;3.60;;;1.53;;
28834;SDS011;15969;51.536;11.884;2023-03-11T15:50:45;2.93;;;1.90;;
28834;SDS011;15969;51.536;11.884;2023-03-11T15:53:23;2.80;;;1.87;;
28834;SDS011;15969;51.536;11.884;2023-03-11T15:55:51;3.90;;;2.03;;
28834;SDS011;15969;51.536;11.884;2023-03-11T15:58:19;2.97;;;1.40;;
28834;SDS011;15969;51.536;11.884;2023-03-11T16:00:46;2.47;;;1.50;;
28834;SDS011;15969;51.536;11.884;2023-03-11T16:03:16;2.97;;;1.20;;
28834;SDS011;15969;51.536;11.884;2023-03-11T16:05:43;4.67;;;1.90;;
28834;SDS011;15969;51.536;11.884;2023-03-11T16:08:09;5.30;;;2.03;;
28834;SDS011;15969;51.536;11.884;2023-03-11T16:10:36;3.13;;;1.40;;
28834;SDS011;15969;51.536;11.884;2023-03-11T16:13:02;2.27;;;1.43;;
28834;SDS011;15969;51.536;11.884;2023-03-11T16:15:30;3.83;;;1.20;;
28834;SDS011;15969;51.536;11.884;2023-03-11T16:18:02;3.17;;;1.37;;
28834;SDS011;15969;51.536;11.884;2023-03-11T16:20:36;4.50;;;1.53;;
28834;SDS011;15969;51.536;11.884;2023-03-11T16:23:11;2.47;;;1.20;;